sensor_id;sensor_type;location;lat;lon;timestamp;temperature;humidity
22984;DHT22;11658;48.908;9.140;2022-08-20T04:01:33;19.50;99.90
22984;DHT22;11658;48.908;9.140;2022-08-20T04:03:59;19.60;99.90
22984;DHT22;11658;48.908;9.140;2022-08-20T04:06:26;19.60;99.90
22984;DHT22;11658;48.908;9.140;2022-08-20T04:08:54;19.60;99.90
22984;DHT22;11658;48.908;9.140;2022-08-20T04:11:19;19.60;99.90
22984;DHT22;11658;48.908;9.140;2022-08-20T04:13:45;19.60;99.90
22984;DHT22;11658;48.908;9.140;2022-08-20T04:16:11;19.60;99.90
22984;DHT22;11658;48.908;9.140;2022-08-20T04:18:36;19.60;99.90
22984;DHT22;11658;48.908;9.140;2022-08-20T04:21:03;19.60;99.90
22984;DHT22;11658;48.908;9.140;2022-08-20T04:23:30;19.70;99.90
22984;DHT22;11658;48.908;9.140;2022-08-20T04:25:56;19.70;99.90
22984;DHT22;11658;48.908;9.140;2022-08-20T04:28:23;19.70;99.90
22984;DHT22;11658;48.908;9.140;2022-08-20T04:30:52;19.70;99.90
22984;DHT22;11658;48.908;9.140;2022-08-20T04:33:19;19.70;99.90
22984;DHT22;11658;48.908;9.140;2022-08-20T04:35:45;19.70;99.90
22984;DHT22;11658;48.908;9.140;2022-08-20T04:38:14;19.70;99.90
22984;DHT22;11658;48.908;9.140;2022-08-20T04:40:39;19.80;99.90
22984;DHT22;11658;48.908;9.140;2022-08-20T04:43:21;19.80;99.90
22984;DHT22;11658;48.908;9.140;2022-08-20T04:45:51;19.80;99.90
22984;DHT22;11658;48.908;9.140;2022-08-20T04:48:19;19.80;99.90
22984;DHT22;11658;48.908;9.140;2022-08-20T04:50:45;19.80;99.90
22984;DHT22;11658;48.908;9.140;2022-08-20T04:53:13;19.80;99.90
22984;DHT22;11658;48.908;9.140;2022-08-20T04:55:41;19.80;99.90
22984;DHT22;11658;48.908;9.140;2022-08-20T04:58:19;19.90;99.90
22984;DHT22;11658;48.908;9.140;2022-08-20T05:00:52;19.90;99.90
22984;DHT22;11658;48.908;9.140;2022-08-20T05:03:20;19.90;99.90
22984;DHT22;11658;48.908;9.140;2022-08-20T05:05:46;19.90;99.90
22984;DHT22;11658;48.908;9.140;2022-08-20T05:08:13;20.00;99.90
22984;DHT22;11658;48.908;9.140;2022-08-20T05:10:39;20.00;99.90
22984;DHT22;11658;48.908;9.140;2022-08-20T05:13:06;20.10;99.90
22984;DHT22;11658;48.908;9.140;2022-08-20T05:15:34;20.10;99.90
22984;DHT22;11658;48.908;9.140;2022-08-20T05:18:01;20.20;99.90
22984;DHT22;11658;48.908;9.140;2022-08-20T05:20:34;20.10;99.90
22984;DHT22;11658;48.908;9.140;2022-08-20T05:23:01;20.10;99.90
22984;DHT22;11658;48.908;9.140;2022-08-20T05:25:30;20.10;99.90
22984;DHT22;11658;48.908;9.140;2022-08-20T05:28:04;20.00;99.90
22984;DHT22;11658;48.908;9.140;2022-08-20T05:30:35;20.00;99.90
22984;DHT22;11658;48.908;9.140;2022-08-20T05:33:03;20.10;99.90
22984;DHT22;11658;48.908;9.140;2022-08-20T05:35:30;20.10;99.90
22984;DHT22;11658;48.908;9.140;2022-08-20T05:37:59;20.10;99.90
22984;DHT22;11658;48.908;9.140;2022-08-20T05:40:26;20.10;99.90
22984;DHT22;11658;48.908;9.140;2022-08-20T05:42:52;20.10;99.90
22984;DHT22;11658;48.908;9.140;2022-08-20T05:45:18;20.00;99.90
22984;DHT22;11658;48.908;9.140;2022-08-20T05:47:44;20.00;99.90
22984;DHT22;11658;48.908;9.140;2022-08-20T05:50:11;20.10;99.90
22984;DHT22;11658;48.908;9.140;2022-08-20T05:52:40;20.10;99.90
22984;DHT22;11658;48.908;9.140;2022-08-20T05:55:08;20.10;99.90
22984;DHT22;11658;48.908;9.140;2022-08-20T05:57:35;20.30;99.90
22984;DHT22;11658;48.908;9.140;2022-08-20T06:00:04;20.40;99.90
22984;DHT22;11658;48.908;9.140;2022-08-20T06:02:30;20.40;99.90
22984;DHT22;11658;48.908;9.140;2022-08-20T06:05:14;20.40;99.90
22984;DHT22;11658;48.908;9.140;2022-08-20T06:07:40;20.50;99.90
22984;DHT22;11658;48.908;9.140;2022-08-20T06:10:06;20.60;99.90
22984;DHT22;11658;48.908;9.140;2022-08-20T06:12:33;20.70;99.90
22984;DHT22;11658;48.908;9.140;2022-08-20T06:14:59;20.70;99.90
22984;DHT22;11658;48.908;9.140;2022-08-20T06:17:24;20.70;99.90
22984;DHT22;11658;48.908;9.140;2022-08-20T06:19:50;20.80;99.90
22984;DHT22;11658;48.908;9.140;2022-08-20T06:22:16;20.70;99.90
22984;DHT22;11658;48.908;9.140;2022-08-20T06:24:42;20.60;99.90
22984;DHT22;11658;48.908;9.140;2022-08-20T06:27:12;20.50;99.90
22984;DHT22;11658;48.908;9.140;2022-08-20T06:29:38;20.50;99.90
22984;DHT22;11658;48.908;9.140;2022-08-20T06:32:04;20.40;99.90
22984;DHT22;11658;48.908;9.140;2022-08-20T06:34:30;20.40;99.90
22984;DHT22;11658;48.908;9.140;2022-08-20T06:36:57;20.40;99.90
22984;DHT22;11658;48.908;9.140;2022-08-20T06:39:24;20.40;99.90
22984;DHT22;11658;48.908;9.140;2022-08-20T06:41:49;20.30;99.90
22984;DHT22;11658;48.908;9.140;2022-08-20T06:44:17;20.40;99.90
22984;DHT22;11658;48.908;9.140;2022-08-20T06:46:43;20.40;99.90
22984;DHT22;11658;48.908;9.140;2022-08-20T06:49:10;20.50;99.90
22984;DHT22;11658;48.908;9.140;2022-08-20T06:51:36;20.60;99.90
22984;DHT22;11658;48.908;9.140;2022-08-20T06:54:02;20.70;99.90
22984;DHT22;11658;48.908;9.140;2022-08-20T06:56:28;20.80;99.90
22984;DHT22;11658;48.908;9.140;2022-08-20T06:58:53;20.70;99.90
22984;DHT22;11658;48.908;9.140;2022-08-20T07:01:19;20.60;99.90
22984;DHT22;11658;48.908;9.140;2022-08-20T07:03:46;20.70;99.90
22984;DHT22;11658;48.908;9.140;2022-08-20T07:06:13;20.80;99.90
22984;DHT22;11658;48.908;9.140;2022-08-20T07:08:39;21.00;99.90
22984;DHT22;11658;48.908;9.140;2022-08-20T07:11:05;21.00;99.90
22984;DHT22;11658;48.908;9.140;2022-08-20T07:13:31;21.00;99.90
22984;DHT22;11658;48.908;9.140;2022-08-20T07:15:56;21.10;99.90
22984;DHT22;11658;48.908;9.140;2022-08-20T07:18:23;21.10;99.90
22984;DHT22;11658;48.908;9.140;2022-08-20T07:20:49;21.30;99.90
22984;DHT22;11658;48.908;9.140;2022-08-20T07:23:14;21.40;99.90
22984;DHT22;11658;48.908;9.140;2022-08-20T07:25:42;21.70;99.90
22984;DHT22;11658;48.908;9.140;2022-08-20T07:28:13;22.00;99.90
22984;DHT22;11658;48.908;9.140;2022-08-20T07:30:40;22.30;99.90
22984;DHT22;11658;48.908;9.140;2022-08-20T07:33:26;22.40;99.90
22984;DHT22;11658;48.908;9.140;2022-08-20T07:35:53;22.50;99.90
22984;DHT22;11658;48.908;9.140;2022-08-20T07:38:21;22.60;99.90
22984;DHT22;11658;48.908;9.140;2022-08-20T07:40:53;22.70;99.90
22984;DHT22;11658;48.908;9.140;2022-08-20T07:43:20;22.70;99.90
22984;DHT22;11658;48.908;9.140;2022-08-20T07:45:49;23.00;99.90
22984;DHT22;11658;48.908;9.140;2022-08-20T07:48:16;23.00;99.90
22984;DHT22;11658;48.908;9.140;2022-08-20T07:50:41;23.00;99.90
22984;DHT22;11658;48.908;9.140;2022-08-20T07:53:07;23.20;99.90
22984;DHT22;11658;48.908;9.140;2022-08-20T07:55:33;23.10;99.90
22984;DHT22;11658;48.908;9.140;2022-08-20T07:58:07;23.10;99.90
22984;DHT22;11658;48.908;9.140;2022-08-20T08:00:33;22.90;99.90
22984;DHT22;11658;48.908;9.140;2022-08-20T08:02:59;23.00;99.90
22984;DHT22;11658;48.908;9.140;2022-08-20T08:05:25;23.10;99.90
22984;DHT22;11658;48.908;9.140;2022-08-20T08:07:51;23.00;99.90
22984;DHT22;11658;48.908;9.140;2022-08-20T08:10:19;23.00;99.90
22984;DHT22;11658;48.908;9.140;2022-08-20T08:12:50;23.00;99.90
22984;DHT22;11658;48.908;9.140;2022-08-20T08:15:21;23.30;99.90
22984;DHT22;11658;48.908;9.140;2022-08-20T08:17:49;23.60;99.90
22984;DHT22;11658;48.908;9.140;2022-08-20T08:20:17;23.70;99.90
22984;DHT22;11658;48.908;9.140;2022-08-20T08:22:46;23.70;99.90
22984;DHT22;11658;48.908;9.140;2022-08-20T08:25:13;23.40;99.90
22984;DHT22;11658;48.908;9.140;2022-08-20T08:27:40;23.10;99.90
22984;DHT22;11658;48.908;9.140;2022-08-20T08:30:07;23.00;99.90
22984;DHT22;11658;48.908;9.140;2022-08-20T08:32:35;22.90;99.90
22984;DHT22;11658;48.908;9.140;2022-08-20T08:35:03;23.10;99.90
22984;DHT22;11658;48.908;9.140;2022-08-20T08:37:30;23.50;99.90
22984;DHT22;11658;48.908;9.140;2022-08-20T08:39:56;23.50;99.90
22984;DHT22;11658;48.908;9.140;2022-08-20T08:42:42;23.60;99.90
22984;DHT22;11658;48.908;9.140;2022-08-20T08:45:09;23.80;99.90
22984;DHT22;11658;48.908;9.140;2022-08-20T08:47:38;24.20;99.90
22984;DHT22;11658;48.908;9.140;2022-08-20T08:50:09;24.40;99.90
22984;DHT22;11658;48.908;9.140;2022-08-20T08:52:39;24.70;99.90
22984;DHT22;11658;48.908;9.140;2022-08-20T08:55:10;24.60;99.90
22984;DHT22;11658;48.908;9.140;2022-08-20T08:57:40;24.50;99.90
22984;DHT22;11658;48.908;9.140;2022-08-20T09:00:12;24.40;99.90
22984;DHT22;11658;48.908;9.140;2022-08-20T09:02:40;24.80;99.90
22984;DHT22;11658;48.908;9.140;2022-08-20T09:05:19;24.80;99.90
22984;DHT22;11658;48.908;9.140;2022-08-20T09:07:49;24.60;99.90
22984;DHT22;11658;48.908;9.140;2022-08-20T09:10:15;24.50;99.90
22984;DHT22;11658;48.908;9.140;2022-08-20T09:12:41;24.40;99.90
22984;DHT22;11658;48.908;9.140;2022-08-20T09:15:09;24.00;99.90
22984;DHT22;11658;48.908;9.140;2022-08-20T09:17:34;23.90;99.90
22984;DHT22;11658;48.908;9.140;2022-08-20T09:20:00;23.90;99.90
22984;DHT22;11658;48.908;9.140;2022-08-20T09:22:26;23.60;99.90
22984;DHT22;11658;48.908;9.140;2022-08-20T09:24:51;23.50;99.90
22984;DHT22;11658;48.908;9.140;2022-08-20T09:27:18;23.50;99.90
22984;DHT22;11658;48.908;9.140;2022-08-20T09:29:43;23.60;99.90
22984;DHT22;11658;48.908;9.140;2022-08-20T09:32:18;23.70;99.90
22984;DHT22;11658;48.908;9.140;2022-08-20T09:34:47;23.30;99.90
22984;DHT22;11658;48.908;9.140;2022-08-20T09:37:16;23.40;99.90
22984;DHT22;11658;48.908;9.140;2022-08-20T09:39:42;23.60;99.90
22984;DHT22;11658;48.908;9.140;2022-08-20T09:42:09;23.80;99.90
22984;DHT22;11658;48.908;9.140;2022-08-20T09:44:35;23.90;99.90
22984;DHT22;11658;48.908;9.140;2022-08-20T09:47:00;24.30;99.90
22984;DHT22;11658;48.908;9.140;2022-08-20T09:49:26;24.70;99.90
22984;DHT22;11658;48.908;9.140;2022-08-20T09:51:52;24.60;99.90
22984;DHT22;11658;48.908;9.140;2022-08-20T09:54:19;24.00;99.90
22984;DHT22;11658;48.908;9.140;2022-08-20T09:56:45;24.00;99.90
22984;DHT22;11658;48.908;9.140;2022-08-20T09:59:12;24.10;99.90
22984;DHT22;11658;48.908;9.140;2022-08-20T10:01:38;24.20;99.90
22984;DHT22;11658;48.908;9.140;2022-08-20T10:04:04;24.60;99.90
22984;DHT22;11658;48.908;9.140;2022-08-20T10:06:30;24.40;99.90
22984;DHT22;11658;48.908;9.140;2022-08-20T10:08:56;23.90;99.90
22984;DHT22;11658;48.908;9.140;2022-08-20T10:11:21;23.80;99.90
22984;DHT22;11658;48.908;9.140;2022-08-20T10:13:47;23.60;99.90
22984;DHT22;11658;48.908;9.140;2022-08-20T10:16:13;23.60;99.90
22984;DHT22;11658;48.908;9.140;2022-08-20T10:18:38;23.60;99.90
22984;DHT22;11658;48.908;9.140;2022-08-20T10:21:09;23.60;99.90
22984;DHT22;11658;48.908;9.140;2022-08-20T10:23:35;23.40;99.90
22984;DHT22;11658;48.908;9.140;2022-08-20T10:26:00;23.40;99.90
22984;DHT22;11658;48.908;9.140;2022-08-20T10:28:26;23.80;99.90
22984;DHT22;11658;48.908;9.140;2022-08-20T10:30:51;23.90;99.90
22984;DHT22;11658;48.908;9.140;2022-08-20T10:33:17;24.00;99.90
22984;DHT22;11658;48.908;9.140;2022-08-20T10:35:43;24.20;99.90
22984;DHT22;11658;48.908;9.140;2022-08-20T10:38:08;24.50;99.90
22984;DHT22;11658;48.908;9.140;2022-08-20T10:40:34;24.80;99.90
22984;DHT22;11658;48.908;9.140;2022-08-20T10:42:59;24.70;99.90
22984;DHT22;11658;48.908;9.140;2022-08-20T10:45:25;24.90;99.90
22984;DHT22;11658;48.908;9.140;2022-08-20T10:47:51;24.20;99.90
22984;DHT22;11658;48.908;9.140;2022-08-20T10:50:16;24.20;99.90
22984;DHT22;11658;48.908;9.140;2022-08-20T10:52:44;24.20;99.90
22984;DHT22;11658;48.908;9.140;2022-08-20T10:55:10;24.30;99.90
22984;DHT22;11658;48.908;9.140;2022-08-20T10:57:39;24.20;99.90
22984;DHT22;11658;48.908;9.140;2022-08-20T11:00:06;24.00;99.90
22984;DHT22;11658;48.908;9.140;2022-08-20T11:02:34;24.20;99.90
22984;DHT22;11658;48.908;9.140;2022-08-20T11:04:59;24.70;99.90
22984;DHT22;11658;48.908;9.140;2022-08-20T11:07:37;24.80;99.90
22984;DHT22;11658;48.908;9.140;2022-08-20T11:10:05;25.10;99.90
22984;DHT22;11658;48.908;9.140;2022-08-20T11:12:31;25.40;99.90
22984;DHT22;11658;48.908;9.140;2022-08-20T11:14:57;25.70;99.90
22984;DHT22;11658;48.908;9.140;2022-08-20T11:17:30;25.30;99.90
22984;DHT22;11658;48.908;9.140;2022-08-20T11:19:58;25.10;99.90
22984;DHT22;11658;48.908;9.140;2022-08-20T11:22:24;24.90;99.90
22984;DHT22;11658;48.908;9.140;2022-08-20T11:24:51;25.20;99.90
22984;DHT22;11658;48.908;9.140;2022-08-20T11:27:37;25.30;99.90
22984;DHT22;11658;48.908;9.140;2022-08-20T11:30:05;25.10;99.90
22984;DHT22;11658;48.908;9.140;2022-08-20T11:32:31;25.40;99.90
22984;DHT22;11658;48.908;9.140;2022-08-20T11:34:56;25.40;99.90
22984;DHT22;11658;48.908;9.140;2022-08-20T11:37:23;25.10;99.90
22984;DHT22;11658;48.908;9.140;2022-08-20T11:39:50;24.80;99.90
22984;DHT22;11658;48.908;9.140;2022-08-20T11:42:15;24.60;99.90
22984;DHT22;11658;48.908;9.140;2022-08-20T11:44:41;24.50;99.90
22984;DHT22;11658;48.908;9.140;2022-08-20T11:47:07;24.20;99.90
22984;DHT22;11658;48.908;9.140;2022-08-20T11:49:35;23.90;99.90
22984;DHT22;11658;48.908;9.140;2022-08-20T11:52:02;23.30;99.90
22984;DHT22;11658;48.908;9.140;2022-08-20T11:54:28;23.10;99.90
22984;DHT22;11658;48.908;9.140;2022-08-20T11:56:56;22.90;99.90
22984;DHT22;11658;48.908;9.140;2022-08-20T11:59:23;22.90;99.90
22984;DHT22;11658;48.908;9.140;2022-08-20T12:01:48;22.90;99.90
22984;DHT22;11658;48.908;9.140;2022-08-20T12:04:14;23.10;99.90
22984;DHT22;11658;48.908;9.140;2022-08-20T12:06:40;23.10;99.90
22984;DHT22;11658;48.908;9.140;2022-08-20T12:09:05;23.20;99.90
22984;DHT22;11658;48.908;9.140;2022-08-20T12:11:31;23.30;99.90
22984;DHT22;11658;48.908;9.140;2022-08-20T12:13:57;23.30;99.90
22984;DHT22;11658;48.908;9.140;2022-08-20T12:16:22;23.40;99.90
22984;DHT22;11658;48.908;9.140;2022-08-20T12:18:48;23.70;99.90
22984;DHT22;11658;48.908;9.140;2022-08-20T12:21:14;23.80;99.90
22984;DHT22;11658;48.908;9.140;2022-08-20T12:23:39;24.00;99.90
22984;DHT22;11658;48.908;9.140;2022-08-20T12:26:05;24.40;99.90
22984;DHT22;11658;48.908;9.140;2022-08-20T12:28:31;24.70;99.90
22984;DHT22;11658;48.908;9.140;2022-08-20T12:30:57;24.80;99.90
22984;DHT22;11658;48.908;9.140;2022-08-20T12:33:22;25.00;99.90
22984;DHT22;11658;48.908;9.140;2022-08-20T12:35:48;24.90;99.90
22984;DHT22;11658;48.908;9.140;2022-08-20T12:38:14;24.60;99.90
22984;DHT22;11658;48.908;9.140;2022-08-20T12:40:40;23.90;99.90
22984;DHT22;11658;48.908;9.140;2022-08-20T12:43:06;22.90;99.90
22984;DHT22;11658;48.908;9.140;2022-08-20T12:45:33;21.30;99.90
22984;DHT22;11658;48.908;9.140;2022-08-20T12:48:02;20.40;99.90
22984;DHT22;11658;48.908;9.140;2022-08-20T12:50:28;19.80;99.90
22984;DHT22;11658;48.908;9.140;2022-08-20T12:52:54;19.40;99.90
22984;DHT22;11658;48.908;9.140;2022-08-20T12:55:20;19.40;99.90
22984;DHT22;11658;48.908;9.140;2022-08-20T12:57:49;19.40;99.90
22984;DHT22;11658;48.908;9.140;2022-08-20T13:00:24;19.70;99.90
22984;DHT22;11658;48.908;9.140;2022-08-20T13:02:55;20.00;99.90
22984;DHT22;11658;48.908;9.140;2022-08-20T13:05:21;20.20;99.90
22984;DHT22;11658;48.908;9.140;2022-08-20T13:07:47;20.40;99.90
22984;DHT22;11658;48.908;9.140;2022-08-20T13:10:17;20.60;99.90
22984;DHT22;11658;48.908;9.140;2022-08-20T13:12:43;20.70;99.90
22984;DHT22;11658;48.908;9.140;2022-08-20T13:15:09;20.90;99.90
22984;DHT22;11658;48.908;9.140;2022-08-20T13:17:35;21.00;99.90
22984;DHT22;11658;48.908;9.140;2022-08-20T13:20:01;21.10;99.90
22984;DHT22;11658;48.908;9.140;2022-08-20T13:22:26;21.10;99.90
22984;DHT22;11658;48.908;9.140;2022-08-20T13:24:52;21.40;99.90
22984;DHT22;11658;48.908;9.140;2022-08-20T13:27:18;21.60;99.90
22984;DHT22;11658;48.908;9.140;2022-08-20T13:29:52;21.70;99.90
22984;DHT22;11658;48.908;9.140;2022-08-20T13:32:19;22.00;99.90
22984;DHT22;11658;48.908;9.140;2022-08-20T13:34:45;22.60;99.90
22984;DHT22;11658;48.908;9.140;2022-08-20T13:37:19;22.80;99.90
22984;DHT22;11658;48.908;9.140;2022-08-20T13:39:46;22.90;99.90
22984;DHT22;11658;48.908;9.140;2022-08-20T13:42:12;22.80;99.90
22984;DHT22;11658;48.908;9.140;2022-08-20T13:44:38;22.80;99.90
22984;DHT22;11658;48.908;9.140;2022-08-20T13:49:39;23.30;99.90
22984;DHT22;11658;48.908;9.140;2022-08-20T13:52:05;23.50;99.90
22984;DHT22;11658;48.908;9.140;2022-08-20T13:54:31;23.60;99.90
22984;DHT22;11658;48.908;9.140;2022-08-20T13:57:14;23.60;99.90
22984;DHT22;11658;48.908;9.140;2022-08-20T13:59:43;23.80;99.90
22984;DHT22;11658;48.908;9.140;2022-08-20T14:02:10;24.00;99.90
22984;DHT22;11658;48.908;9.140;2022-08-20T14:04:36;24.20;99.90
22984;DHT22;11658;48.908;9.140;2022-08-20T14:07:21;24.60;99.90
22984;DHT22;11658;48.908;9.140;2022-08-20T14:09:50;24.90;99.90
22984;DHT22;11658;48.908;9.140;2022-08-20T14:12:16;25.20;99.90
22984;DHT22;11658;48.908;9.140;2022-08-20T14:14:43;25.30;99.90
22984;DHT22;11658;48.908;9.140;2022-08-20T14:17:27;25.60;99.90
22984;DHT22;11658;48.908;9.140;2022-08-20T14:20:03;25.90;99.90
22984;DHT22;11658;48.908;9.140;2022-08-20T14:22:29;26.10;99.90
22984;DHT22;11658;48.908;9.140;2022-08-20T14:24:55;26.30;99.90
22984;DHT22;11658;48.908;9.140;2022-08-20T14:27:21;26.60;99.90
22984;DHT22;11658;48.908;9.140;2022-08-20T14:29:48;26.80;99.90
22984;DHT22;11658;48.908;9.140;2022-08-20T14:32:14;27.00;99.90
22984;DHT22;11658;48.908;9.140;2022-08-20T14:34:41;27.00;99.90
22984;DHT22;11658;48.908;9.140;2022-08-20T14:37:16;27.10;99.90
22984;DHT22;11658;48.908;9.140;2022-08-20T14:39:44;27.30;99.90
22984;DHT22;11658;48.908;9.140;2022-08-20T14:42:10;27.20;99.90
22984;DHT22;11658;48.908;9.140;2022-08-20T14:44:36;26.80;99.90
22984;DHT22;11658;48.908;9.140;2022-08-20T14:47:19;26.90;99.90
22984;DHT22;11658;48.908;9.140;2022-08-20T14:49:46;26.90;99.90
22984;DHT22;11658;48.908;9.140;2022-08-20T14:52:13;26.70;99.90
22984;DHT22;11658;48.908;9.140;2022-08-20T14:54:40;26.80;99.90
22984;DHT22;11658;48.908;9.140;2022-08-20T14:57:06;26.70;99.90
22984;DHT22;11658;48.908;9.140;2022-08-20T14:59:33;26.60;99.90
22984;DHT22;11658;48.908;9.140;2022-08-20T15:01:59;26.50;99.90
22984;DHT22;11658;48.908;9.140;2022-08-20T15:04:25;26.50;99.90
22984;DHT22;11658;48.908;9.140;2022-08-20T15:06:51;26.10;99.90
22984;DHT22;11658;48.908;9.140;2022-08-20T15:09:16;26.10;99.90
22984;DHT22;11658;48.908;9.140;2022-08-20T15:11:42;26.20;99.90
22984;DHT22;11658;48.908;9.140;2022-08-20T15:14:08;26.20;99.90
22984;DHT22;11658;48.908;9.140;2022-08-20T15:16:34;26.20;99.90
22984;DHT22;11658;48.908;9.140;2022-08-20T15:19:00;26.20;99.90
22984;DHT22;11658;48.908;9.140;2022-08-20T15:21:26;25.90;99.90
22984;DHT22;11658;48.908;9.140;2022-08-20T15:23:51;25.60;99.90
22984;DHT22;11658;48.908;9.140;2022-08-20T15:26:17;25.50;99.90
22984;DHT22;11658;48.908;9.140;2022-08-20T15:28:43;25.60;99.90
22984;DHT22;11658;48.908;9.140;2022-08-20T15:31:10;25.70;99.90
22984;DHT22;11658;48.908;9.140;2022-08-20T15:33:36;25.80;99.90
22984;DHT22;11658;48.908;9.140;2022-08-20T15:36:04;26.00;99.90
22984;DHT22;11658;48.908;9.140;2022-08-20T15:38:30;26.10;99.90
22984;DHT22;11658;48.908;9.140;2022-08-20T15:40:57;26.10;99.90
22984;DHT22;11658;48.908;9.140;2022-08-20T15:43:29;26.10;99.90
22984;DHT22;11658;48.908;9.140;2022-08-20T15:45:56;26.10;99.90
22984;DHT22;11658;48.908;9.140;2022-08-20T15:48:37;26.20;99.90
22984;DHT22;11658;48.908;9.140;2022-08-20T15:54:02;26.10;99.90
22984;DHT22;11658;48.908;9.140;2022-08-20T15:56:49;25.90;99.90
22984;DHT22;11658;48.908;9.140;2022-08-20T16:05:22;25.80;99.90
22984;DHT22;11658;48.908;9.140;2022-08-20T16:10:33;26.00;99.90
22984;DHT22;11658;48.908;9.140;2022-08-20T16:13:05;26.10;99.90
22984;DHT22;11658;48.908;9.140;2022-08-20T16:15:35;26.10;99.90
22984;DHT22;11658;48.908;9.140;2022-08-20T16:18:16;26.20;99.90
22984;DHT22;11658;48.908;9.140;2022-08-20T16:20:48;26.10;99.90
22984;DHT22;11658;48.908;9.140;2022-08-20T16:23:16;26.10;99.90
22984;DHT22;11658;48.908;9.140;2022-08-20T16:31:47;27.10;99.90
22984;DHT22;11658;48.908;9.140;2022-08-20T16:34:29;27.30;99.90
22984;DHT22;11658;48.908;9.140;2022-08-20T16:39:51;27.30;99.90
22984;DHT22;11658;48.908;9.140;2022-08-20T16:42:22;27.50;99.90
22984;DHT22;11658;48.908;9.140;2022-08-20T16:44:51;28.00;99.90
22984;DHT22;11658;48.908;9.140;2022-08-20T16:47:32;28.40;99.90
22984;DHT22;11658;48.908;9.140;2022-08-20T16:50:19;29.30;99.90
22984;DHT22;11658;48.908;9.140;2022-08-20T16:52:46;29.90;99.90
22984;DHT22;11658;48.908;9.140;2022-08-20T16:55:21;30.30;99.90
22984;DHT22;11658;48.908;9.140;2022-08-20T16:57:48;30.30;99.90
22984;DHT22;11658;48.908;9.140;2022-08-20T17:03:04;30.20;99.40
22984;DHT22;11658;48.908;9.140;2022-08-20T17:08:05;30.10;98.10
22984;DHT22;11658;48.908;9.140;2022-08-20T17:10:38;30.10;97.90
22984;DHT22;11658;48.908;9.140;2022-08-20T17:15:43;30.80;96.60
22984;DHT22;11658;48.908;9.140;2022-08-20T17:18:23;30.10;95.70
22984;DHT22;11658;48.908;9.140;2022-08-20T17:20:50;30.10;95.70
22984;DHT22;11658;48.908;9.140;2022-08-20T17:23:18;30.10;95.00
22984;DHT22;11658;48.908;9.140;2022-08-20T17:26:00;30.50;94.00
22984;DHT22;11658;48.908;9.140;2022-08-20T17:28:27;30.20;93.70
22984;DHT22;11658;48.908;9.140;2022-08-20T17:30:53;30.40;93.90
22984;DHT22;11658;48.908;9.140;2022-08-20T17:35:57;30.10;90.50
22984;DHT22;11658;48.908;9.140;2022-08-20T17:38:36;29.40;91.70
22984;DHT22;11658;48.908;9.140;2022-08-20T17:41:10;29.00;92.10
22984;DHT22;11658;48.908;9.140;2022-08-20T17:43:37;28.60;93.30
22984;DHT22;11658;48.908;9.140;2022-08-20T17:46:08;27.80;93.60
22984;DHT22;11658;48.908;9.140;2022-08-20T17:48:42;27.10;94.90
22984;DHT22;11658;48.908;9.140;2022-08-20T17:51:23;26.20;94.70
22984;DHT22;11658;48.908;9.140;2022-08-20T17:53:56;25.70;95.50
22984;DHT22;11658;48.908;9.140;2022-08-20T17:56:31;25.20;96.30
22984;DHT22;11658;48.908;9.140;2022-08-20T17:59:25;25.00;97.40
22984;DHT22;11658;48.908;9.140;2022-08-20T18:01:54;24.70;98.00
22984;DHT22;11658;48.908;9.140;2022-08-20T18:04:21;24.50;98.90
22984;DHT22;11658;48.908;9.140;2022-08-20T18:09:57;24.20;99.90
22984;DHT22;11658;48.908;9.140;2022-08-20T18:15:34;23.80;99.90
22984;DHT22;11658;48.908;9.140;2022-08-20T18:26:24;23.30;99.90
22984;DHT22;11658;48.908;9.140;2022-08-20T18:29:08;23.20;99.90
22984;DHT22;11658;48.908;9.140;2022-08-20T18:31:58;23.00;99.90
22984;DHT22;11658;48.908;9.140;2022-08-20T18:37:20;22.70;99.90
22984;DHT22;11658;48.908;9.140;2022-08-20T18:39:48;22.60;99.90
22984;DHT22;11658;48.908;9.140;2022-08-20T18:42:31;22.50;99.90
22984;DHT22;11658;48.908;9.140;2022-08-20T18:44:57;22.40;99.90
22984;DHT22;11658;48.908;9.140;2022-08-20T18:50:11;22.20;99.90
22984;DHT22;11658;48.908;9.140;2022-08-20T18:52:41;22.20;99.90
22984;DHT22;11658;48.908;9.140;2022-08-20T18:55:25;22.10;99.90
22984;DHT22;11658;48.908;9.140;2022-08-20T18:58:03;22.00;99.90
22984;DHT22;11658;48.908;9.140;2022-08-20T19:00:37;21.90;99.90
22984;DHT22;11658;48.908;9.140;2022-08-20T19:08:21;21.70;99.90
22984;DHT22;11658;48.908;9.140;2022-08-20T19:16:44;21.50;99.90
22984;DHT22;11658;48.908;9.140;2022-08-20T19:19:21;21.40;99.90
22984;DHT22;11658;48.908;9.140;2022-08-20T19:21:48;21.30;99.90
22984;DHT22;11658;48.908;9.140;2022-08-20T19:24:27;21.20;99.90
22984;DHT22;11658;48.908;9.140;2022-08-20T19:26:57;21.10;99.90
22984;DHT22;11658;48.908;9.140;2022-08-20T19:29:47;21.00;99.90
22984;DHT22;11658;48.908;9.140;2022-08-20T19:32:31;20.90;99.90
22984;DHT22;11658;48.908;9.140;2022-08-20T19:35:01;20.90;99.90
22984;DHT22;11658;48.908;9.140;2022-08-20T19:37:34;20.70;99.90
22984;DHT22;11658;48.908;9.140;2022-08-20T19:40:03;20.60;99.90
22984;DHT22;11658;48.908;9.140;2022-08-20T19:42:32;20.60;99.90
22984;DHT22;11658;48.908;9.140;2022-08-20T19:45:06;20.50;99.90
22984;DHT22;11658;48.908;9.140;2022-08-20T19:51:12;20.30;99.90
22984;DHT22;11658;48.908;9.140;2022-08-20T19:53:45;20.30;99.90
22984;DHT22;11658;48.908;9.140;2022-08-20T19:56:19;20.20;99.90
22984;DHT22;11658;48.908;9.140;2022-08-20T19:58:56;20.10;99.90
22984;DHT22;11658;48.908;9.140;2022-08-20T20:01:32;20.10;99.90
22984;DHT22;11658;48.908;9.140;2022-08-20T20:04:12;20.00;99.90
22984;DHT22;11658;48.908;9.140;2022-08-20T20:06:46;19.90;99.90
22984;DHT22;11658;48.908;9.140;2022-08-20T20:11:48;19.80;99.90
22984;DHT22;11658;48.908;9.140;2022-08-20T20:14:17;19.80;99.90
22984;DHT22;11658;48.908;9.140;2022-08-20T20:16:48;19.80;99.90
22984;DHT22;11658;48.908;9.140;2022-08-20T20:19:15;19.70;99.90
22984;DHT22;11658;48.908;9.140;2022-08-20T20:21:45;19.70;99.90
22984;DHT22;11658;48.908;9.140;2022-08-20T20:24:21;19.60;99.90
22984;DHT22;11658;48.908;9.140;2022-08-20T20:26:48;19.40;99.90
22984;DHT22;11658;48.908;9.140;2022-08-20T20:29:23;19.40;99.90
22984;DHT22;11658;48.908;9.140;2022-08-20T20:34:17;19.40;99.90
22984;DHT22;11658;48.908;9.140;2022-08-20T20:36:45;19.30;99.90
22984;DHT22;11658;48.908;9.140;2022-08-20T20:39:30;19.40;99.90
22984;DHT22;11658;48.908;9.140;2022-08-20T20:41:59;19.40;99.90
22984;DHT22;11658;48.908;9.140;2022-08-20T20:44:30;19.30;99.90
22984;DHT22;11658;48.908;9.140;2022-08-20T20:46:59;19.30;99.90
22984;DHT22;11658;48.908;9.140;2022-08-20T20:49:28;19.30;99.90
22984;DHT22;11658;48.908;9.140;2022-08-20T20:52:21;19.20;99.90
22984;DHT22;11658;48.908;9.140;2022-08-20T20:54:50;19.30;99.90